Helene — V7VF9 — position and weather

sailwx.info

Track history (hours):
 
Tides and Currents Weather Stations Pressure Air Temp Water Temp Dewpoint Dewpoint Depression Visibility Wind Speed Wind Dir Waves Ship Positions

Helene

Last reported at 2014-Aug-30 01:33 UTC. Time now 2014-Aug-30 02:31 UTC.
Position N 26°35' W 079°30'.

Length 207 m; draft 8.5 m.

Type: Cargo ship. MMSI: 538090420.

Date/timePositionNaut miles runAvg speedWind from/ knotsBaromVisibWave heightAir tempDewpointWater temp
2014-Aug-30 01:33N 26°35' W 079°30'2016.9
2014-Aug-30 00:21N 26°56' W 079°27'1417.4
2014-Aug-29 23:31N 27°10' W 079°25'1817.7
2014-Aug-29 22:31N 27°28' W 079°22'44618.6
2014-Aug-28 22:33N 34°12' W 075°43'1717.0
2014-Aug-28 21:33N 34°27' W 075°33'316 8.7
2014-Aug-27 09:14N 39°43' W 075°31'0 0.0
2014-Aug-27 08:32N 39°43' W 075°31'0 0.0
2014-Aug-27 07:29N 39°43' W 075°31'0 0.0
2014-Aug-27 06:31N 39°43' W 075°31'0 0.0
2014-Aug-27 05:28N 39°43' W 075°31'0 0.0
2014-Aug-27 04:31N 39°43' W 075°31'0 0.0
2014-Aug-27 03:31N 39°43' W 075°31'  
2014-Aug-23 03:08N 26°50' W 079°43'1424.2
2014-Aug-23 02:34N 26°36' W 079°45'2423.9
2014-Aug-23 01:34N 26°13' W 079°47'2323.4
2014-Aug-23 00:33N 25°49' W 079°50'  
Track history (hours):
 
Tides and Currents Weather Stations Pressure Air Temp Water Temp Dewpoint Dewpoint Depression Visibility Wind Speed Wind Dir Waves Ship Positions

Helene

Last reported at 2014-Aug-30 01:33 UTC. Time now 2014-Aug-30 02:31 UTC.
Position N 26°35' W 079°30'.

Length 207 m; draft 8.5 m.

Type: Cargo ship. MMSI: 538090420.

Date/timePositionNaut miles runAvg speedWind from/ knotsBaromVisibWave heightAir tempDewpointWater temp
2014-Aug-30 01:33N 26°35' W 079°30'2016.9
2014-Aug-30 00:21N 26°56' W 079°27'1417.4
2014-Aug-29 23:31N 27°10' W 079°25'1817.7
2014-Aug-29 22:31N 27°28' W 079°22'44618.6
2014-Aug-28 22:33N 34°12' W 075°43'1717.0
2014-Aug-28 21:33N 34°27' W 075°33'316 8.7
2014-Aug-27 09:14N 39°43' W 075°31'0 0.0
2014-Aug-27 08:32N 39°43' W 075°31'0 0.0
2014-Aug-27 07:29N 39°43' W 075°31'0 0.0
2014-Aug-27 06:31N 39°43' W 075°31'0 0.0
2014-Aug-27 05:28N 39°43' W 075°31'0 0.0
2014-Aug-27 04:31N 39°43' W 075°31'0 0.0
2014-Aug-27 03:31N 39°43' W 075°31'  
2014-Aug-23 03:08N 26°50' W 079°43'1424.2
2014-Aug-23 02:34N 26°36' W 079°45'2423.9
2014-Aug-23 01:34N 26°13' W 079°47'2323.4
2014-Aug-23 00:33N 25°49' W 079°50'  

Dump ship's entire track history